Time;durP1;ratioP1;P1;durP2;ratioP2;P2;SDS_P1;SDS_P2;PMS_P1;PMS_P2;Temp;Humidity;BMP_temperature;BMP_pressure;BME280_temperature;BME280_humidity;BME280_pressure;Samples;Min_cycle;Max_cycle;Signal;HPM_P1;HPM_P2
2022/07/03 00:00:52;;;;;;;2.53;2.33;;;;;;;18.07;57.53;99016.16;2622951;54;20034;-65
2022/07/03 00:03:22;;;;;;;2.50;2.30;;;;;;;18.00;57.79;99020.81;2622606;54;20034;-64
2022/07/03 00:05:51;;;;;;;3.38;2.30;;;;;;;17.92;57.88;99024.69;2620587;54;20038;-64
2022/07/03 00:08:24;;;;;;;4.55;2.90;;;;;;;17.80;58.52;99019.34;2620747;39;20769;-65
2022/07/03 00:10:54;;;;;;;2.75;2.50;;;;;;;17.78;59.08;99012.59;2620833;54;20026;-64
2022/07/03 00:13:23;;;;;;;3.25;2.60;;;;;;;17.80;58.94;99005.97;2620671;54;20041;-64
2022/07/03 00:15:52;;;;;;;3.15;2.17;;;;;;;17.73;59.00;99010.59;2620320;54;20043;-64
2022/07/03 00:18:22;;;;;;;2.28;2.08;;;;;;;17.74;58.87;99011.41;2619533;54;20034;-64
2022/07/03 00:20:57;;;;;;;2.10;1.88;;;;;;;17.79;58.40;99015.03;2619387;54;20062;-63
2022/07/03 00:23:32;;;;;;;4.47;2.08;;;;;;;17.79;58.19;99017.69;2620056;54;20037;-63
2022/07/03 00:26:04;;;;;;;7.00;2.25;;;;;;;17.79;57.99;99019.56;2619782;54;20058;-63
2022/07/03 00:28:34;;;;;;;4.25;2.40;;;;;;;17.88;57.56;99020.03;2619704;54;20034;-63
2022/07/03 00:31:04;;;;;;;2.25;1.80;;;;;;;17.94;57.66;99019.91;2618697;54;20043;-62
2022/07/03 00:33:37;;;;;;;1.77;1.67;;;;;;;17.93;57.36;99018.28;2619533;54;20034;-63
2022/07/03 00:36:07;;;;;;;2.53;2.25;;;;;;;17.86;57.55;99022.13;2619597;54;20027;-63
2022/07/03 00:38:39;;;;;;;1.90;1.80;;;;;;;17.86;57.36;99020.25;2618821;46;20069;-63
2022/07/03 00:41:10;;;;;;;2.45;1.80;;;;;;;17.90;57.66;99023.28;2619379;54;20037;-63
2022/07/03 00:43:40;;;;;;;4.97;2.55;;;;;;;17.77;57.70;99014.47;2619459;54;20026;-63
2022/07/03 00:46:10;;;;;;;4.15;2.63;;;;;;;17.70;58.50;99019.09;2619494;54;20085;-63
2022/07/03 00:48:40;;;;;;;2.70;2.45;;;;;;;17.49;58.79;99023.16;2619094;47;20035;-63
2022/07/03 00:51:17;;;;;;;4.10;2.78;;;;;;;17.38;59.18;99015.94;2619435;54;20037;-63
2022/07/03 00:53:52;;;;;;;2.95;2.40;;;;;;;17.39;59.75;99014.91;2619251;54;20534;-64
2022/07/03 00:56:26;;;;;;;4.35;2.33;;;;;;;17.40;59.35;99008.53;2619106;54;20046;-64
2022/07/03 00:58:59;;;;;;;4.40;2.40;;;;;;;17.28;59.80;99008.50;2619041;54;20094;-65
2022/07/03 01:01:32;;;;;;;4.15;2.60;;;;;;;17.21;60.10;99006.97;2618867;54;20030;-64
2022/07/03 01:04:12;;;;;;;2.88;2.53;;;;;;;17.14;60.36;98999.06;2619145;54;20030;-64
2022/07/03 01:06:50;;;;;;;3.47;2.80;;;;;;;17.11;60.40;99004.88;2618953;54;20026;-66
2022/07/03 01:09:31;;;;;;;4.30;3.20;;;;;;;17.09;60.67;99012.31;2619004;39;20425;-64
2022/07/03 01:12:05;;;;;;;3.50;2.90;;;;;;;17.05;60.57;99019.97;2619040;54;20034;-66
2022/07/03 01:14:45;;;;;;;4.63;2.72;;;;;;;17.10;60.94;99005.91;2618174;54;20039;-65
2022/07/03 01:17:26;;;;;;;4.35;2.40;;;;;;;17.07;60.39;99007.19;2619277;54;20039;-65
2022/07/03 01:20:03;;;;;;;2.75;2.53;;;;;;;17.05;60.68;99003.13;2618862;54;20034;-65
2022/07/03 01:22:34;;;;;;;2.38;2.17;;;;;;;16.98;60.35;99002.41;2619186;54;20534;-65
2022/07/03 01:25:29;;;;;;;2.25;2.05;;;;;;;16.90;60.81;99011.59;2619326;54;20034;-64
2022/07/03 01:28:06;;;;;;;;;;;;;;;16.87;60.53;99005.88;2620147;54;20034;-65
2022/07/03 01:30:38;;;;;;;2.80;2.55;;;;;;;16.88;60.32;99005.63;2619318;39;20377;-65
2022/07/03 01:33:09;;;;;;;5.70;2.53;;;;;;;16.85;60.40;99003.41;2619234;54;20042;-65
2022/07/03 01:35:41;;;;;;;3.88;2.40;;;;;;;16.86;60.40;98998.88;2618969;54;20042;-65
2022/07/03 01:38:12;;;;;;;2.63;2.42;;;;;;;16.76;60.90;99010.94;2619280;54;20026;-64
2022/07/03 01:40:44;;;;;;;2.30;2.10;;;;;;;16.64;60.84;99003.91;2619115;54;20026;-64
2022/07/03 01:43:17;;;;;;;3.53;2.20;;;;;;;16.55;61.50;99006.09;2618278;54;20034;-64
2022/07/03 01:45:50;;;;;;;3.63;2.42;;;;;;;16.47;62.12;99004.53;2619005;54;20026;-65
2022/07/03 01:48:22;;;;;;;3.35;2.50;;;;;;;16.41;62.57;99007.28;2619176;54;20038;-65
2022/07/03 01:50:52;;;;;;;2.70;2.50;;;;;;;16.41;62.05;99005.47;2620394;54;20022;-65
2022/07/03 01:53:22;;;;;;;3.10;2.38;;;;;;;16.33;62.48;99008.44;2619838;54;20039;-65
2022/07/03 01:55:53;;;;;;;2.53;2.15;;;;;;;16.34;62.45;99002.06;2620136;54;20085;-65
2022/07/03 01:58:25;;;;;;;4.50;2.70;;;;;;;16.30;62.49;98995.53;2620686;54;20085;-65
2022/07/03 02:01:03;;;;;;;3.80;2.65;;;;;;;16.23;62.51;99000.94;2622891;54;20042;-65
2022/07/03 02:03:34;;;;;;;2.85;2.30;;;;;;;16.23;63.07;99005.47;2622917;54;20034;-65
2022/07/03 02:06:10;;;;;;;2.95;2.38;;;;;;;16.27;63.00;98998.66;2622754;54;20042;-68
2022/07/03 02:08:48;;;;;;;2.15;1.95;;;;;;;16.33;62.71;98992.44;2623037;54;20038;-63
2022/07/03 02:11:39;;;;;;;3.35;2.13;;;;;;;16.43;62.40;98998.03;2622181;54;20819;-63
2022/07/03 02:14:16;;;;;;;3.15;2.83;;;;;;;16.39;61.89;98996.84;2623664;54;20057;-64
2022/07/03 02:16:53;;;;;;;3.97;2.58;;;;;;;16.27;62.59;98995.97;2623523;54;20038;-63
2022/07/03 02:19:30;;;;;;;2.92;2.50;;;;;;;16.16;62.90;98992.22;2623362;54;20035;-64
2022/07/03 02:22:00;;;;;;;7.18;2.22;;;;;;;16.08;63.29;98992.50;2623877;54;20022;-63
2022/07/03 02:24:32;;;;;;;2.88;2.58;;;;;;;16.01;63.63;98994.47;2623668;54;20031;-64
2022/07/03 02:27:06;;;;;;;3.75;2.55;;;;;;;15.96;63.45;98999.63;2623012;47;20050;-63
2022/07/03 02:29:45;;;;;;;2.65;2.40;;;;;;;15.89;63.80;99001.56;2622216;54;20033;-63
2022/07/03 02:32:19;;;;;;;3.95;3.08;;;;;;;15.91;63.55;98996.81;2621349;54;20069;-65
2022/07/03 02:34:57;;;;;;;5.07;2.55;;;;;;;15.88;64.16;99005.25;2619794;54;20065;-63
2022/07/03 02:37:32;;;;;;;3.47;3.05;;;;;;;15.97;64.33;99003.94;2618096;47;20074;-64
2022/07/03 02:40:06;;;;;;;3.75;2.17;;;;;;;16.07;63.57;99006.88;2618666;54;20039;-63
2022/07/03 02:42:45;;;;;;;2.38;2.17;;;;;;;15.98;63.78;99009.03;2620577;54;20031;-63
2022/07/03 02:45:17;;;;;;;2.95;2.30;;;;;;;15.95;63.78;99014.00;2623401;54;20019;-63
2022/07/03 02:47:53;;;;;;;8.02;2.28;;;;;;;15.95;64.10;99008.66;2625305;39;20429;-64
2022/07/03 02:50:24;;;;;;;4.10;2.95;;;;;;;15.93;64.26;99014.25;2623743;39;20713;-64
2022/07/03 02:53:06;;;;;;;2.78;2.47;;;;;;;15.89;64.09;99015.72;2623516;54;20038;-63
2022/07/03 02:55:44;;;;;;;4.03;2.38;;;;;;;15.84;64.06;99013.72;2618909;54;20093;-62
2022/07/03 02:58:30;;;;;;;4.22;3.50;;;;;;;15.79;64.37;99012.72;2618815;54;20561;-62
2022/07/03 03:01:10;;;;;;;3.38;3.08;;;;;;;15.80;64.50;99027.72;2623574;54;20283;-63
2022/07/03 03:03:47;;;;;;;5.43;3.90;;;;;;;15.83;64.35;99025.38;2623534;54;20036;-67
2022/07/03 03:06:18;;;;;;;4.53;3.67;;;;;;;15.91;64.13;99023.47;2624366;39;20427;-65
2022/07/03 03:08:50;;;;;;;8.30;5.63;;;;;;;15.84;64.47;99031.56;2619634;54;20038;-64
2022/07/03 03:11:27;;;;;;;7.18;4.60;;;;;;;15.79;64.57;99031.38;2618938;39;20473;-64
2022/07/03 03:13:59;;;;;;;4.18;2.80;;;;;;;15.78;64.12;99032.44;2618746;31;20435;-63
2022/07/03 03:16:31;;;;;;;2.75;2.47;;;;;;;15.85;64.67;99036.66;2618700;54;20041;-63
2022/07/03 03:19:01;;;;;;;3.63;2.65;;;;;;;15.81;64.11;99027.47;2618514;39;20407;-64
2022/07/03 03:21:34;;;;;;;6.68;3.35;;;;;;;15.80;64.24;99041.03;2618073;54;20057;-63
2022/07/03 03:24:04;;;;;;;3.83;2.67;;;;;;;15.82;64.41;99037.09;2618381;54;20037;-63
2022/07/03 03:26:34;;;;;;;3.10;2.80;;;;;;;15.84;64.42;99039.56;2618695;54;20030;-63
2022/07/03 03:29:04;;;;;;;2.70;2.50;;;;;;;15.79;64.39;99042.88;2618401;54;20033;-63
2022/07/03 03:31:36;;;;;;;3.17;2.88;;;;;;;15.81;64.72;99051.47;2619560;54;20034;-63
2022/07/03 03:34:06;;;;;;;3.33;2.72;;;;;;;15.75;64.54;99047.00;2621750;54;20037;-64
2022/07/03 03:36:37;;;;;;;6.28;3.35;;;;;;;15.75;64.66;99046.19;2622131;39;20453;-65
2022/07/03 03:39:06;;;;;;;4.68;2.85;;;;;;;15.80;64.54;99046.38;2620667;54;20057;-65
2022/07/03 03:41:36;;;;;;;4.18;3.50;;;;;;;15.84;64.58;99051.03;2620837;54;20027;-65
2022/07/03 03:44:06;;;;;;;6.53;3.70;;;;;;;15.84;64.39;99051.03;2621658;54;20030;-65
2022/07/03 03:46:38;;;;;;;10.65;5.50;;;;;;;15.74;64.29;99060.56;2619562;54;20037;-65
2022/07/03 03:49:08;;;;;;;7.53;4.60;;;;;;;15.80;64.29;99054.38;2619608;54;20029;-65
2022/07/03 03:51:38;;;;;;;5.88;3.35;;;;;;;15.79;64.51;99056.19;2619371;54;20073;-65
2022/07/03 03:54:08;;;;;;;9.68;3.65;;;;;;;15.85;64.47;99051.84;2619882;54;20042;-65
2022/07/03 03:56:37;;;;;;;3.70;2.80;;;;;;;15.89;64.29;99057.56;2619787;54;20034;-65
2022/07/03 03:59:07;;;;;;;3.58;2.90;;;;;;;15.68;64.35;99058.78;2618722;54;20042;-65
2022/07/03 04:01:39;;;;;;;6.25;2.88;;;;;;;15.59;64.56;99058.19;2595682;54;20038;-71
2022/07/03 04:04:12;;;;;;;3.53;2.55;;;;;;;15.59;65.14;99067.03;2622343;54;20159;-68
2022/07/03 04:06:41;;;;;;;3.75;2.80;;;;;;;15.61;65.06;99061.47;2623310;39;20160;-70
2022/07/03 04:09:11;;;;;;;4.30;2.63;;;;;;;15.63;64.87;99064.72;2622052;54;20026;-69
2022/07/03 04:11:41;;;;;;;2.83;2.60;;;;;;;15.63;64.67;99066.56;2622899;54;20138;-69
2022/07/03 15:40:26;;;;;;;3.78;1.23;;;;;;;31.43;22.66;98860.88;2590750;47;20031;-65
2022/07/03 15:43:15;;;;;;;1.95;0.80;;;;;;;31.50;23.29;98853.78;2617269;54;20042;-65
2022/07/03 15:45:48;;;;;;;2.10;0.60;;;;;;;31.52;23.58;98851.53;2617579;54;20114;-65
2022/07/03 15:48:27;;;;;;;1.33;0.95;;;;;;;31.85;23.57;98848.13;2617738;54;20041;-66
2022/07/03 15:51:08;;;;;;;2.58;1.10;;;;;;;31.84;23.41;98851.97;2617997;54;20038;-67
2022/07/03 15:53:40;;;;;;;0.77;0.70;;;;;;;31.70;23.20;98848.69;2618637;54;20038;-73
2022/07/03 15:56:16;;;;;;;2.90;0.90;;;;;;;31.82;23.15;98846.03;2621285;54;20030;-69
2022/07/03 15:58:52;;;;;;;1.38;0.90;;;;;;;31.93;22.48;98841.81;2621336;54;20033;-71
2022/07/03 16:04:11;;;;;;;3.80;0.57;;;;;;;31.25;23.21;98835.56;2622059;54;20054;-70
2022/07/03 16:06:46;;;;;;;2.40;1.00;;;;;;;31.40;22.90;98826.06;2622288;54;20031;-70
2022/07/03 16:09:17;;;;;;;6.75;1.23;;;;;;;31.58;23.07;98835.72;2622668;54;20038;-70
2022/07/03 16:11:50;;;;;;;0.80;0.70;;;;;;;31.70;22.89;98829.56;2621435;47;20518;-70
2022/07/03 16:14:19;;;;;;;;;;;;;;;31.87;22.95;98826.72;2619481;47;20576;-70
2022/07/03 16:16:51;;;;;;;2.15;0.90;;;;;;;31.84;23.17;98832.84;2619749;47;19946;-71
2022/07/03 16:19:22;;;;;;;2.95;1.23;;;;;;;31.45;23.91;98825.84;2619909;54;20045;-70
2022/07/03 16:21:56;;;;;;;3.10;1.10;;;;;;;31.37;23.93;98823.97;2620594;54;20033;-70
2022/07/03 16:24:26;;;;;;;5.25;1.13;;;;;;;31.30;23.90;98821.75;2624035;54;20026;-71
2022/07/03 16:26:59;;;;;;;1.52;0.90;;;;;;;31.56;23.75;98827.88;2624572;54;20030;-70
2022/07/03 16:29:28;;;;;;;1.17;0.80;;;;;;;31.83;23.43;98821.09;2621590;54;20030;-70
2022/07/03 16:32:02;;;;;;;2.25;0.82;;;;;;;32.01;22.82;98819.06;2620921;54;20066;-70
2022/07/03 16:34:36;;;;;;;1.52;0.80;;;;;;;32.09;22.67;98808.38;2619433;54;20030;-69
2022/07/03 16:37:09;;;;;;;2.60;1.10;;;;;;;31.85;22.97;98811.81;2618450;54;20041;-69
2022/07/03 16:39:41;;;;;;;1.73;0.80;;;;;;;31.68;23.32;98808.03;2618158;39;20426;-71
2022/07/03 16:42:15;;;;;;;0.77;0.60;;;;;;;31.85;22.91;98815.34;2618411;54;20131;-70
2022/07/03 16:44:47;;;;;;;1.58;0.90;;;;;;;32.02;23.07;98808.94;2618312;54;20041;-70
2022/07/03 16:47:18;;;;;;;4.35;1.10;;;;;;;32.34;23.00;98812.03;2618228;54;20121;-70
2022/07/03 16:49:48;;;;;;;1.33;0.80;;;;;;;32.50;22.58;98813.81;2618032;54;20085;-70
2022/07/03 16:52:24;;;;;;;2.13;1.00;;;;;;;32.09;22.44;98811.94;2618042;54;20042;-69
2022/07/03 16:54:56;;;;;;;1.92;0.90;;;;;;;31.47;22.93;98818.13;2618135;54;20034;-70
2022/07/03 16:57:29;;;;;;;1.27;0.85;;;;;;;30.92;23.82;98817.06;2618327;54;20086;-70
2022/07/03 17:00:00;;;;;;;2.47;0.77;;;;;;;31.08;23.36;98809.94;2618119;54;20086;-70
2022/07/03 17:02:30;;;;;;;1.55;0.95;;;;;;;31.68;23.41;98818.13;2618049;54;20045;-70
2022/07/03 17:05:02;;;;;;;2.38;0.80;;;;;;;32.04;22.85;98810.19;2618065;54;20050;-71
2022/07/03 17:07:32;;;;;;;1.25;1.13;;;;;;;32.54;22.74;98806.53;2618053;54;20786;-70
2022/07/03 17:10:01;;;;;;;2.10;0.85;;;;;;;32.52;22.01;98797.06;2617759;54;20084;-70
2022/07/03 17:12:34;;;;;;;4.68;0.82;;;;;;;32.50;21.78;98804.81;2617358;47;20069;-70
2022/07/03 17:15:03;;;;;;;3.05;0.93;;;;;;;33.09;21.59;98796.25;2618157;54;20051;-69
2022/07/03 17:17:34;;;;;;;4.05;1.05;;;;;;;33.52;21.57;98794.91;2617997;54;20023;-71
2022/07/03 17:20:07;;;;;;;1.85;0.90;;;;;;;33.98;21.12;98793.56;2617748;54;20049;-70
2022/07/03 17:22:43;;;;;;;1.73;0.80;;;;;;;34.35;20.73;98796.13;2617951;54;20054;-71
2022/07/03 17:25:20;;;;;;;0.80;0.75;;;;;;;33.63;20.71;98795.22;2618079;54;20034;-71
2022/07/03 17:27:54;;;;;;;3.25;1.30;;;;;;;32.66;21.39;98797.56;2618534;54;20051;-71
2022/07/03 17:30:30;;;;;;;2.15;0.70;;;;;;;31.94;22.24;98790.66;2618853;54;20030;-70
2022/07/03 17:33:04;;;;;;;2.33;0.80;;;;;;;31.55;22.53;98798.13;2620061;54;20034;-70
2022/07/03 17:35:37;;;;;;;3.47;0.80;;;;;;;31.89;22.15;98794.41;2618692;54;20027;-70
2022/07/03 17:38:12;;;;;;;1.30;0.98;;;;;;;33.07;21.52;98795.00;2620021;54;20557;-70
2022/07/03 17:41:02;;;;;;;2.35;0.95;;;;;;;33.94;20.40;98789.09;2618795;54;20114;-71
2022/07/03 17:43:34;;;;;;;1.20;0.88;;;;;;;34.63;19.92;98779.66;2619281;39;20450;-70
2022/07/03 17:46:04;;;;;;;;;;;;;;;35.08;19.44;98769.41;2618264;54;20026;-70
2022/07/03 17:48:35;;;;;;;4.43;0.98;;;;;;;35.39;19.04;98774.03;2617448;54;19946;-70
2022/07/03 17:51:05;;;;;;;0.87;0.60;;;;;;;35.70;19.05;98778.69;2618213;54;20073;-72
2022/07/03 17:53:37;;;;;;;3.08;1.27;;;;;;;35.91;18.58;98772.81;2617942;47;20298;-71
2022/07/03 17:56:07;;;;;;;2.13;1.15;;;;;;;36.26;18.44;98766.47;2618185;47;20029;-72
2022/07/03 17:58:41;;;;;;;5.35;1.20;;;;;;;36.38;18.25;98775.34;2617776;54;20035;-71
2022/07/03 18:01:11;;;;;;;3.70;1.27;;;;;;;36.48;17.99;98768.47;2617947;47;20031;-73
2022/07/03 18:03:41;;;;;;;4.90;2.13;;;;;;;35.51;18.66;98775.91;2618392;54;20037;-72
2022/07/03 18:06:14;;;;;;;1.83;1.17;;;;;;;35.29;19.32;98774.59;2618209;54;20027;-71
2022/07/03 18:08:48;;;;;;;0.93;0.82;;;;;;;35.15;19.02;98777.81;2618450;54;20026;-70
2022/07/03 18:11:24;;;;;;;5.03;1.30;;;;;;;33.92;20.68;98777.66;2617697;47;20110;-70
2022/07/03 18:14:01;;;;;;;1.67;1.25;;;;;;;32.91;21.19;98784.72;2618060;54;20073;-71
2022/07/03 18:16:39;;;;;;;1.90;0.82;;;;;;;32.51;21.62;98784.53;2617511;54;20050;-70
2022/07/03 18:19:09;;;;;;;1.30;0.98;;;;;;;32.13;21.97;98785.53;2618140;54;20030;-71
2022/07/03 18:21:42;;;;;;;5.05;1.08;;;;;;;31.74;22.40;98784.84;2618043;54;20033;-71
2022/07/03 18:24:15;;;;;;;1.10;0.82;;;;;;;31.07;23.41;98786.50;2618064;54;20035;-72
2022/07/03 18:26:45;;;;;;;;;;;;;;;30.57;23.49;98795.31;2617455;47;20035;-69
2022/07/03 18:29:20;;;;;;;1.08;0.80;;;;;;;30.25;24.22;98796.66;2617751;54;19998;-69
2022/07/03 18:31:49;;;;;;;1.38;0.82;;;;;;;29.91;24.83;98793.91;2617669;51;20026;-71
2022/07/03 18:34:22;;;;;;;1.52;0.80;;;;;;;29.65;25.08;98793.91;2617769;54;20030;-71
2022/07/03 18:36:52;;;;;;;3.85;1.30;;;;;;;29.48;25.57;98794.66;2617946;54;20037;-70
2022/07/03 18:39:24;;;;;;;2.95;0.90;;;;;;;29.27;25.83;98802.59;2618628;54;20577;-70
2022/07/03 18:41:54;;;;;;;3.50;1.00;;;;;;;28.99;26.32;98800.09;2617929;47;20040;-71
2022/07/03 18:44:27;;;;;;;1.90;1.00;;;;;;;28.86;26.43;98799.06;2617547;47;20315;-70
2022/07/03 18:46:57;;;;;;;4.25;2.03;;;;;;;28.82;26.60;98802.69;2617997;54;20042;-71
2022/07/03 18:49:27;;;;;;;4.82;1.10;;;;;;;28.62;27.00;98804.84;2618578;39;20459;-71
2022/07/03 18:52:05;;;;;;;2.30;0.90;;;;;;;28.49;26.84;98810.34;2618511;54;20035;-69
2022/07/03 18:54:46;;;;;;;2.67;1.00;;;;;;;28.29;27.03;98815.16;2618058;47;20030;-70
2022/07/03 18:57:22;;;;;;;2.05;0.98;;;;;;;28.13;27.53;98806.56;2618142;54;20030;-69
2022/07/03 19:00:04;;;;;;;1.77;1.17;;;;;;;28.06;28.13;98808.13;2618227;54;20038;-70
2022/07/03 19:02:44;;;;;;;7.25;0.93;;;;;;;28.01;28.15;98814.47;2618387;39;20434;-70
2022/07/03 19:05:16;;;;;;;1.35;0.80;;;;;;;27.83;28.62;98808.06;2618681;54;20030;-70
2022/07/03 19:08:00;;;;;;;1.58;1.10;;;;;;;27.75;28.62;98816.94;2618704;54;20033;-69
2022/07/03 19:10:32;;;;;;;2.33;0.70;;;;;;;27.66;28.86;98819.53;2618869;54;20027;-69
2022/07/03 19:13:06;;;;;;;3.23;1.10;;;;;;;27.62;28.98;98818.53;2619726;54;20022;-69
2022/07/03 19:15:40;;;;;;;3.03;0.90;;;;;;;27.56;29.19;98821.69;2620257;47;20287;-71
2022/07/03 19:18:10;;;;;;;2.08;1.45;;;;;;;27.52;29.28;98821.50;2621288;54;20045;-70
2022/07/03 19:20:40;;;;;;;3.90;0.95;;;;;;;27.38;29.39;98824.19;2621496;54;20034;-71
2022/07/03 19:23:10;;;;;;;1.77;0.85;;;;;;;27.29;29.76;98825.22;2621968;54;20047;-70
2022/07/03 19:25:40;;;;;;;1.45;0.90;;;;;;;27.24;29.60;98834.25;2622136;54;20037;-71
2022/07/03 19:28:10;;;;;;;2.97;1.08;;;;;;;27.14;30.25;98839.88;2622493;54;20038;-70
2022/07/03 19:30:42;;;;;;;6.95;1.38;;;;;;;27.04;30.24;98840.06;2622108;54;20042;-70
2022/07/03 19:33:12;;;;;;;6.10;1.58;;;;;;;26.93;30.76;98844.84;2621230;54;20038;-66
2022/07/03 19:35:41;;;;;;;3.22;1.38;;;;;;;26.84;30.58;98846.66;2621487;54;20851;-67
2022/07/03 19:38:11;;;;;;;4.05;1.00;;;;;;;26.76;31.19;98852.75;2621595;54;20037;-66
2022/07/03 19:40:41;;;;;;;2.03;1.52;;;;;;;26.65;31.52;98861.03;2620698;54;20026;-67
2022/07/03 19:43:11;;;;;;;1.63;1.23;;;;;;;26.55;31.43;98866.66;2621367;54;20031;-68
2022/07/03 19:45:47;;;;;;;4.43;1.30;;;;;;;26.48;31.64;98882.47;2622289;54;20043;-70
2022/07/03 19:48:17;;;;;;;2.55;1.63;;;;;;;26.39;31.88;98886.94;2619132;54;20066;-69
2022/07/03 19:50:47;;;;;;;2.33;1.40;;;;;;;26.33;31.80;98890.81;2620210;54;20035;-67
2022/07/03 19:53:17;;;;;;;3.20;1.92;;;;;;;26.26;32.07;98898.53;2619435;47;20109;-68
2022/07/03 19:55:47;;;;;;;2.42;1.30;;;;;;;26.16;32.56;98899.44;2620004;54;20030;-67
2022/07/03 19:58:17;;;;;;;2.47;1.67;;;;;;;26.07;33.04;98910.13;2624081;47;20042;-69
2022/07/03 20:00:52;;;;;;;4.70;2.05;;;;;;;25.97;33.07;98914.91;2625078;54;20050;-68
2022/07/03 20:03:22;;;;;;;3.95;1.80;;;;;;;25.88;33.25;98920.13;2624704;54;20030;-66
2022/07/03 20:05:52;;;;;;;4.38;2.53;;;;;;;25.83;33.26;98923.72;2623607;54;20037;-67
2022/07/03 20:08:24;;;;;;;5.68;3.03;;;;;;;25.80;33.67;98926.19;2621260;54;20033;-66
2022/07/03 20:10:54;;;;;;;5.03;2.70;;;;;;;25.77;33.95;98934.88;2620666;39;20441;-69
2022/07/03 20:13:26;;;;;;;5.03;2.22;;;;;;;25.72;34.14;98941.16;2620812;39;20425;-69
2022/07/03 20:15:59;;;;;;;5.85;1.80;;;;;;;25.62;34.15;98946.69;2622790;39;20437;-69
2022/07/03 20:18:28;;;;;;;5.18;2.65;;;;;;;25.53;34.46;98949.22;2621892;54;20035;-68
2022/07/03 20:20:58;;;;;;;5.70;1.95;;;;;;;25.47;34.74;98947.66;2620856;39;20538;-68
2022/07/03 20:23:27;;;;;;;2.17;1.65;;;;;;;25.39;34.80;98950.97;2620915;54;20034;-68
2022/07/03 20:25:58;;;;;;;4.38;1.33;;;;;;;25.23;35.45;98957.63;2621006;47;20030;-68
2022/07/03 20:28:28;;;;;;;4.43;1.77;;;;;;;25.15;35.90;98961.78;2621578;39;20085;-68
2022/07/03 20:31:00;;;;;;;1.90;1.20;;;;;;;25.11;35.87;98966.94;2621299;39;20434;-68
2022/07/03 20:33:33;;;;;;;4.57;1.80;;;;;;;25.06;35.85;98969.66;2620921;46;20042;-70
2022/07/03 20:36:02;;;;;;;3.03;1.30;;;;;;;25.01;36.01;98968.88;2620638;54;20026;-68
2022/07/03 20:38:32;;;;;;;2.60;2.00;;;;;;;24.96;36.38;98980.56;2620648;54;20038;-69
2022/07/03 20:41:21;;;;;;;5.10;2.92;;;;;;;24.87;36.94;98972.25;2620752;54;20030;-69
2022/07/03 20:43:51;;;;;;;2.83;1.60;;;;;;;24.82;37.03;98984.97;2621709;54;20030;-68
2022/07/03 20:46:23;;;;;;;3.08;1.65;;;;;;;24.73;37.57;98978.56;2621213;54;20038;-68
2022/07/03 20:48:53;;;;;;;2.80;1.33;;;;;;;24.64;37.62;98986.47;2621058;39;20532;-66
2022/07/03 20:51:23;;;;;;;2.50;1.73;;;;;;;24.58;37.51;98995.69;2620258;54;20282;-67
2022/07/03 20:53:54;;;;;;;2.92;1.90;;;;;;;24.40;37.84;98997.94;2620896;54;20034;-69
2022/07/03 20:56:23;;;;;;;3.75;2.10;;;;;;;24.28;38.52;98999.31;2619744;54;20030;-68
2022/07/03 20:58:55;;;;;;;4.85;2.38;;;;;;;24.19;38.22;99013.41;2620150;54;20038;-67
2022/07/03 21:01:27;;;;;;;3.30;1.48;;;;;;;24.08;38.96;99016.41;2619768;54;20046;-67
2022/07/03 21:03:56;;;;;;;2.03;1.40;;;;;;;;;;2619987;54;20049;-67
2022/07/03 21:06:29;;;;;;;2.50;1.58;;;;;;;24.04;39.01;99020.75;2620136;54;20877;-67
2022/07/03 21:09:00;;;;;;;3.70;1.57;;;;;;;23.96;39.04;99014.88;2619469;54;20031;-67
2022/07/03 21:11:37;;;;;;;7.78;1.52;;;;;;;23.97;39.02;99026.47;2619640;47;20027;-67
2022/07/03 21:14:10;;;;;;;2.45;1.23;;;;;;;23.94;39.34;99027.81;2620125;54;20040;-68
2022/07/03 21:17:02;;;;;;;6.65;1.65;;;;;;;23.94;40.08;99035.91;2619951;54;20053;-65
2022/07/03 21:19:32;;;;;;;1.35;1.25;;;;;;;23.94;39.82;99040.50;2619213;47;20737;-64
2022/07/03 21:22:02;;;;;;;1.83;1.30;;;;;;;23.85;40.40;99047.56;2620249;54;20023;-64
2022/07/03 21:24:31;;;;;;;3.70;1.95;;;;;;;23.79;40.68;99037.84;2620223;54;20034;-64
2022/07/03 21:27:21;;;;;;;3.58;2.00;;;;;;;23.64;41.55;99052.97;2620375;54;20098;-66
2022/07/03 21:29:51;;;;;;;3.38;1.95;;;;;;;23.59;41.30;99052.13;2620336;54;20671;-66
2022/07/03 21:32:23;;;;;;;2.88;1.65;;;;;;;23.52;41.85;99057.84;2620028;54;20026;-65
2022/07/03 21:34:52;;;;;;;3.67;2.38;;;;;;;23.42;41.97;99055.13;2619810;47;20027;-64
2022/07/03 21:37:22;;;;;;;2.90;1.73;;;;;;;23.37;42.85;99061.34;2620850;54;20026;-65
2022/07/03 21:39:52;;;;;;;5.03;1.80;;;;;;;23.27;42.82;99064.03;2622068;54;20561;-66
2022/07/03 21:42:21;;;;;;;3.30;1.30;;;;;;;23.26;43.18;99069.69;2621636;47;20032;-65
2022/07/03 21:44:51;;;;;;;1.45;1.35;;;;;;;23.08;43.23;99071.03;2622630;54;20023;-64
2022/07/03 21:47:23;;;;;;;4.45;1.50;;;;;;;22.98;44.10;99074.50;2623067;54;20027;-64
2022/07/03 21:49:53;;;;;;;4.82;2.55;;;;;;;22.94;43.86;99071.56;2624580;39;20094;-65
2022/07/03 21:52:22;;;;;;;6.97;2.47;;;;;;;22.90;43.81;99081.25;2622892;54;20026;-64
2022/07/03 21:54:52;;;;;;;3.65;1.75;;;;;;;22.87;44.52;99079.06;2623477;54;20034;-66
2022/07/03 21:57:21;;;;;;;3.38;1.50;;;;;;;22.67;44.89;99081.69;2624334;54;20026;-67
2022/07/03 21:59:51;;;;;;;3.97;2.50;;;;;;;22.69;44.69;99080.34;2623750;54;20026;-66
2022/07/03 22:02:23;;;;;;;6.05;2.35;;;;;;;22.63;45.00;99073.31;2623004;54;20130;-66
2022/07/03 22:04:53;;;;;;;7.43;2.03;;;;;;;22.61;44.90;99080.03;2623580;39;20429;-66
2022/07/03 22:07:22;;;;;;;3.60;1.63;;;;;;;22.58;45.40;99081.41;2623281;54;20042;-67
2022/07/03 22:09:52;;;;;;;5.07;1.90;;;;;;;22.58;45.15;99080.59;2621627;54;20035;-66
2022/07/03 22:15:06;;;;;;;1.50;1.40;;;;;;;22.48;46.06;99081.34;2621770;54;20086;-68
2022/07/03 22:17:40;;;;;;;3.15;1.30;;;;;;;22.40;46.09;99090.72;2622541;54;20035;-67
2022/07/03 22:20:11;;;;;;;6.68;1.70;;;;;;;22.20;46.22;99077.97;2622519;54;20033;-67
2022/07/03 22:22:41;;;;;;;3.10;1.42;;;;;;;22.09;46.87;99078.19;2622303;54;20045;-65
2022/07/03 22:25:12;;;;;;;4.43;1.67;;;;;;;22.04;47.30;99084.31;2621424;47;20031;-67
2022/07/03 22:27:43;;;;;;;4.18;1.77;;;;;;;22.04;46.76;99088.91;2621177;46;20030;-68
2022/07/03 22:30:14;;;;;;;3.33;2.47;;;;;;;21.99;46.99;99090.50;2621175;54;20038;-66
2022/07/03 22:32:47;;;;;;;5.70;1.80;;;;;;;21.98;46.67;99091.56;2621048;54;20038;-69
2022/07/03 22:35:20;;;;;;;3.20;1.80;;;;;;;21.87;46.61;99092.56;2621604;54;20042;-66
2022/07/03 22:37:50;;;;;;;2.17;1.38;;;;;;;21.73;46.72;99094.91;2621409;54;20094;-66
2022/07/03 22:40:20;;;;;;;2.55;1.48;;;;;;;21.59;46.27;99101.78;2621141;54;20066;-66
2022/07/03 22:42:51;;;;;;;2.70;1.30;;;;;;;21.55;46.05;99100.66;2621623;54;20022;-68
2022/07/03 22:45:24;;;;;;;3.78;1.95;;;;;;;21.41;46.15;99103.00;2620820;54;20042;-67
2022/07/03 22:47:56;;;;;;;5.40;1.40;;;;;;;21.38;46.61;99103.50;2618341;39;20404;-66
2022/07/03 22:50:26;;;;;;;2.85;1.40;;;;;;;21.37;46.36;99111.81;2618814;54;20314;-66
2022/07/03 22:52:55;;;;;;;2.70;1.52;;;;;;;21.41;46.41;99115.63;2620587;54;20042;-66
2022/07/03 22:55:25;;;;;;;1.42;1.23;;;;;;;21.45;46.22;99117.56;2620509;54;20030;-65
2022/07/03 22:57:54;;;;;;;5.20;1.02;;;;;;;21.46;46.34;99121.84;2620427;54;20053;-65
2022/07/03 23:00:24;;;;;;;2.30;1.20;;;;;;;21.51;46.05;99121.09;2618332;54;20035;-65
2022/07/03 23:02:56;;;;;;;4.88;1.63;;;;;;;21.57;45.92;99121.97;2618035;54;20038;-65
2022/07/03 23:05:26;;;;;;;3.03;1.40;;;;;;;21.51;46.20;99118.38;2617697;47;20034;-65
2022/07/03 23:07:55;;;;;;;2.97;1.20;;;;;;;21.49;46.45;99120.53;2619697;54;20015;-66
2022/07/03 23:10:25;;;;;;;1.90;1.45;;;;;;;21.45;46.66;99124.81;2621511;47;20030;-68
2022/07/03 23:12:54;;;;;;;3.50;1.30;;;;;;;21.44;46.42;99118.63;2620824;54;20025;-66
2022/07/03 23:15:24;;;;;;;3.03;1.73;;;;;;;21.48;46.34;99125.13;2621139;54;20026;-65
2022/07/03 23:17:56;;;;;;;3.20;1.45;;;;;;;21.37;46.31;99125.28;2621049;54;20038;-65
2022/07/03 23:20:26;;;;;;;4.10;1.40;;;;;;;21.28;47.12;99120.31;2622820;54;20568;-66
2022/07/03 23:22:55;;;;;;;1.75;1.30;;;;;;;21.31;46.74;99118.19;2621947;46;20069;-65
2022/07/03 23:25:25;;;;;;;2.17;1.33;;;;;;;21.23;46.53;99122.16;2622163;54;20021;-67
2022/07/03 23:27:55;;;;;;;7.43;1.60;;;;;;;21.19;47.47;99121.06;2620500;47;20561;-64
2022/07/03 23:30:24;;;;;;;2.38;1.45;;;;;;;21.18;47.27;99122.91;2621485;54;20034;-65